createdAt,value
2022-10-17T00:00:02.380Z,46.17209961803387
2022-10-17T00:15:02.019Z,46.170746613461475
2022-10-17T00:30:01.663Z,45.801035238727785
2022-10-17T00:45:02.323Z,45.75558678010503
2022-10-17T01:00:01.912Z,46.00410853440734
2022-10-17T01:15:01.531Z,45.71547018127801
2022-10-17T01:30:02.224Z,45.73238780707899
2022-10-17T01:45:01.888Z,45.68568245508639
2022-10-17T02:00:01.549Z,45.600809693199544
2022-10-17T02:15:02.205Z,45.447406275556204
2022-10-17T02:30:01.899Z,45.477186821875875
2022-10-17T02:45:01.552Z,45.72582646171414
2022-10-17T03:00:02.212Z,45.66207621782738
2022-10-17T03:15:01.881Z,45.807846007953074
2022-10-17T03:30:01.576Z,45.82283986889408
2022-10-17T03:45:02.224Z,45.97549501892834
2022-10-17T04:00:01.862Z,46.030858579891024
2022-10-17T04:15:01.540Z,46.09466272488491
2022-10-17T04:30:02.109Z,46.09590698396309
2022-10-17T04:45:01.880Z,45.58793156292647
2022-10-17T05:00:01.642Z,45.53784532136949
2022-10-17T05:15:02.299Z,45.572818584902
2022-10-17T05:30:01.982Z,45.455151671952514
2022-10-17T05:45:01.676Z,45.20136818222052
2022-10-17T06:00:02.254Z,45.20152501640701
2022-10-17T06:15:01.900Z,45.07192185695295
2022-10-17T06:30:01.611Z,44.95992889381904
2022-10-17T06:45:02.223Z,44.4023830268818
2022-10-17T07:00:01.856Z,43.83862504129493
2022-10-17T07:15:01.530Z,43.227939606177664
2022-10-17T07:30:02.234Z,42.06902582571471
2022-10-17T07:45:01.920Z,41.54577358977686
2022-10-17T08:00:01.595Z,42.14347422749182
2022-10-17T08:15:01.295Z,42.85196533901429
2022-10-17T08:30:01.993Z,43.02877823279757
2022-10-17T08:45:01.663Z,40.72985910840073
2022-10-17T09:00:01.298Z,41.45253099134163
2022-10-17T09:15:01.912Z,42.25636194691576
2022-10-17T09:30:01.595Z,43.756057356972114
2022-10-17T09:45:01.263Z,42.70534300835859
2022-10-17T10:00:02.222Z,39.15113528987576
2022-10-17T10:15:01.922Z,42.91218595304195
2022-10-17T10:30:01.612Z,42.09583166473128
2022-10-17T10:45:01.314Z,41.24870586899528
2022-10-17T11:00:02.042Z,41.69919985798035
2022-10-17T11:15:01.749Z,44.38557183125138
2022-10-17T11:30:01.466Z,44.818864970230756
2022-10-17T11:45:01.217Z,44.997472918485165
2022-10-17T12:00:01.271Z,44.77647588762103
2022-10-17T12:15:01.243Z,41.79824208991336
2022-10-17T12:30:01.448Z,43.69881889237801
2022-10-17T12:45:01.105Z,43.65179840053047
2022-10-17T13:00:01.766Z,40.375698022263315
2022-10-17T13:15:01.395Z,42.12013248177381
2022-10-17T13:30:01.329Z,46.62182379461636
2022-10-17T13:45:01.428Z,48.22889426646573
2022-10-17T14:00:01.064Z,48.76783296493837
2022-10-17T14:15:10.497Z,49.58052137138328
2022-10-17T14:30:01.836Z,49.30026588962819
2022-10-17T14:45:01.685Z,49.41144951659702
2022-10-17T15:00:01.472Z,48.83036952539492
2022-10-17T15:15:02.103Z,47.62768482021689
2022-10-17T15:30:01.790Z,48.24930330378688
2022-10-17T15:45:01.692Z,48.53024602266142
2022-10-17T16:00:02.501Z,48.81682578177145
2022-10-17T16:15:02.143Z,49.53768542867865
2022-10-17T16:30:01.819Z,50.58086283882907
2022-10-17T16:45:02.465Z,50.71492005297681
2022-10-17T17:00:02.080Z,50.144286487919835
2022-10-17T17:15:01.728Z,50.675214696203966
2022-10-17T17:30:02.401Z,50.874178152377176
2022-10-17T17:45:02.042Z,50.13147413777393
2022-10-17T18:00:01.679Z,49.9149301384863
2022-10-17T18:15:02.334Z,49.441570455088645
2022-10-17T18:30:02.009Z,49.10265592416574
2022-10-17T18:45:01.637Z,50.23129425552967
2022-10-17T19:00:02.432Z,50.540675687043496
2022-10-17T19:15:02.125Z,50.115808805711936
2022-10-17T19:30:01.813Z,50.08032744139429
2022-10-17T19:45:01.480Z,49.28070644792399
2022-10-17T20:00:02.127Z,49.86205423290086
2022-10-17T20:15:01.766Z,50.00842304237483
2022-10-17T20:30:02.443Z,49.84043832428971
2022-10-17T20:45:02.131Z,48.83789977482173
2022-10-17T21:00:01.821Z,48.53895835139267
2022-10-17T21:15:01.486Z,49.19629644549855
2022-10-17T21:30:02.227Z,49.081156135723184
2022-10-17T21:45:04.764Z,49.54830293988138
2022-10-17T22:00:01.385Z,49.75749988604559
2022-10-17T22:15:02.148Z,49.072821879875185
2022-10-17T22:30:01.905Z,48.235760775636294
2022-10-17T22:45:01.573Z,47.78465125026829
2022-10-17T23:00:02.231Z,47.867060292659964
2022-10-17T23:15:01.912Z,47.52758483661605
2022-10-17T23:30:01.614Z,47.68274074781601
2022-10-17T23:45:02.421Z,47.84297728801985
